sensor_id;sensor_type;location;lat;lon;timestamp;P1;durP1;ratioP1;P2;durP2;ratioP2
61407;SDS011;47274;43.054;25.146;2024-03-29T00:02:05;15.75;;;3.15;;
61407;SDS011;47274;43.054;25.146;2024-03-29T00:04:36;11.48;;;3.08;;
61407;SDS011;47274;43.054;25.146;2024-03-29T00:07:08;12.53;;;2.43;;
61407;SDS011;47274;43.054;25.146;2024-03-29T00:09:48;11.13;;;3.03;;
61407;SDS011;47274;43.054;25.146;2024-03-29T00:12:36;14.23;;;3.00;;
61407;SDS011;47274;43.054;25.146;2024-03-29T00:15:19;11.40;;;2.67;;
61407;SDS011;47274;43.054;25.146;2024-03-29T00:17:58;16.58;;;2.70;;
61407;SDS011;47274;43.054;25.146;2024-03-29T00:20:32;14.73;;;2.80;;
61407;SDS011;47274;43.054;25.146;2024-03-29T00:25:34;12.48;;;2.67;;
61407;SDS011;47274;43.054;25.146;2024-03-29T00:28:04;17.73;;;2.60;;
61407;SDS011;47274;43.054;25.146;2024-03-29T00:30:43;10.77;;;2.75;;
61407;SDS011;47274;43.054;25.146;2024-03-29T00:35:46;22.90;;;3.45;;
61407;SDS011;47274;43.054;25.146;2024-03-29T00:38:23;16.85;;;3.13;;
61407;SDS011;47274;43.054;25.146;2024-03-29T00:40:57;16.23;;;3.28;;
61407;SDS011;47274;43.054;25.146;2024-03-29T00:43:30;16.13;;;3.22;;
61407;SDS011;47274;43.054;25.146;2024-03-29T00:46:04;13.85;;;3.28;;
61407;SDS011;47274;43.054;25.146;2024-03-29T00:48:41;12.95;;;2.75;;
61407;SDS011;47274;43.054;25.146;2024-03-29T00:51:13;12.18;;;2.63;;
61407;SDS011;47274;43.054;25.146;2024-03-29T00:53:53;12.65;;;2.47;;
61407;SDS011;47274;43.054;25.146;2024-03-29T00:56:29;10.25;;;2.75;;
61407;SDS011;47274;43.054;25.146;2024-03-29T00:59:07;9.27;;;2.00;;
61407;SDS011;47274;43.054;25.146;2024-03-29T01:01:39;9.52;;;1.92;;
61407;SDS011;47274;43.054;25.146;2024-03-29T01:04:13;13.77;;;2.80;;
61407;SDS011;47274;43.054;25.146;2024-03-29T01:06:54;11.10;;;2.70;;
61407;SDS011;47274;43.054;25.146;2024-03-29T01:09:25;12.73;;;2.60;;
61407;SDS011;47274;43.054;25.146;2024-03-29T01:12:13;7.30;;;2.08;;
61407;SDS011;47274;43.054;25.146;2024-03-29T01:14:47;8.80;;;2.60;;
61407;SDS011;47274;43.054;25.146;2024-03-29T01:17:21;12.20;;;2.33;;
61407;SDS011;47274;43.054;25.146;2024-03-29T01:19:52;10.57;;;3.10;;
61407;SDS011;47274;43.054;25.146;2024-03-29T01:22:35;7.30;;;2.47;;
61407;SDS011;47274;43.054;25.146;2024-03-29T01:25:08;8.18;;;2.28;;
61407;SDS011;47274;43.054;25.146;2024-03-29T01:27:43;7.97;;;2.22;;
61407;SDS011;47274;43.054;25.146;2024-03-29T01:30:14;8.50;;;3.00;;
61407;SDS011;47274;43.054;25.146;2024-03-29T01:32:47;15.32;;;3.78;;
61407;SDS011;47274;43.054;25.146;2024-03-29T01:35:16;9.57;;;3.40;;
61407;SDS011;47274;43.054;25.146;2024-03-29T01:37:47;10.07;;;2.70;;
61407;SDS011;47274;43.054;25.146;2024-03-29T01:40:15;12.60;;;2.72;;
61407;SDS011;47274;43.054;25.146;2024-03-29T01:42:45;7.60;;;2.45;;
61407;SDS011;47274;43.054;25.146;2024-03-29T01:45:13;8.88;;;2.30;;
61407;SDS011;47274;43.054;25.146;2024-03-29T01:47:42;9.85;;;2.58;;
61407;SDS011;47274;43.054;25.146;2024-03-29T01:50:13;7.97;;;2.10;;
61407;SDS011;47274;43.054;25.146;2024-03-29T01:52:41;8.55;;;2.38;;
61407;SDS011;47274;43.054;25.146;2024-03-29T01:55:16;6.03;;;2.40;;
61407;SDS011;47274;43.054;25.146;2024-03-29T01:57:44;5.75;;;2.35;;
61407;SDS011;47274;43.054;25.146;2024-03-29T02:00:25;12.02;;;2.45;;
61407;SDS011;47274;43.054;25.146;2024-03-29T02:02:59;7.47;;;2.50;;
61407;SDS011;47274;43.054;25.146;2024-03-29T02:05:31;6.13;;;2.05;;
61407;SDS011;47274;43.054;25.146;2024-03-29T02:08:01;10.88;;;2.83;;
61407;SDS011;47274;43.054;25.146;2024-03-29T02:10:35;7.10;;;2.33;;
61407;SDS011;47274;43.054;25.146;2024-03-29T02:13:22;10.88;;;2.30;;
61407;SDS011;47274;43.054;25.146;2024-03-29T02:16:01;8.18;;;1.95;;
61407;SDS011;47274;43.054;25.146;2024-03-29T02:18:37;7.70;;;2.20;;
61407;SDS011;47274;43.054;25.146;2024-03-29T02:21:09;9.13;;;2.25;;
61407;SDS011;47274;43.054;25.146;2024-03-29T02:23:43;5.15;;;1.90;;
61407;SDS011;47274;43.054;25.146;2024-03-29T02:26:19;5.13;;;1.92;;
61407;SDS011;47274;43.054;25.146;2024-03-29T02:28:51;7.75;;;2.22;;
61407;SDS011;47274;43.054;25.146;2024-03-29T02:31:26;4.85;;;1.95;;
61407;SDS011;47274;43.054;25.146;2024-03-29T02:33:56;6.60;;;1.98;;
61407;SDS011;47274;43.054;25.146;2024-03-29T02:36:25;7.10;;;2.20;;
61407;SDS011;47274;43.054;25.146;2024-03-29T02:38:58;9.32;;;2.15;;
61407;SDS011;47274;43.054;25.146;2024-03-29T02:41:28;5.88;;;2.08;;
61407;SDS011;47274;43.054;25.146;2024-03-29T02:43:58;5.18;;;1.90;;
61407;SDS011;47274;43.054;25.146;2024-03-29T02:46:29;5.40;;;1.90;;
61407;SDS011;47274;43.054;25.146;2024-03-29T02:49:03;2.45;;;1.90;;
61407;SDS011;47274;43.054;25.146;2024-03-29T02:51:37;4.82;;;2.00;;
61407;SDS011;47274;43.054;25.146;2024-03-29T02:54:07;7.10;;;2.65;;
61407;SDS011;47274;43.054;25.146;2024-03-29T02:56:38;10.50;;;2.97;;
61407;SDS011;47274;43.054;25.146;2024-03-29T02:59:09;9.15;;;3.28;;
61407;SDS011;47274;43.054;25.146;2024-03-29T03:01:51;7.97;;;2.85;;
61407;SDS011;47274;43.054;25.146;2024-03-29T03:04:26;9.35;;;2.88;;
61407;SDS011;47274;43.054;25.146;2024-03-29T03:06:58;19.38;;;5.75;;
61407;SDS011;47274;43.054;25.146;2024-03-29T03:09:45;7.28;;;2.78;;
61407;SDS011;47274;43.054;25.146;2024-03-29T03:12:35;7.22;;;2.67;;
61407;SDS011;47274;43.054;25.146;2024-03-29T03:15:10;12.85;;;2.70;;
61407;SDS011;47274;43.054;25.146;2024-03-29T03:17:46;12.18;;;3.10;;
61407;SDS011;47274;43.054;25.146;2024-03-29T03:20:19;19.02;;;3.28;;
61407;SDS011;47274;43.054;25.146;2024-03-29T03:22:51;17.10;;;3.20;;
61407;SDS011;47274;43.054;25.146;2024-03-29T03:25:24;19.05;;;3.92;;
61407;SDS011;47274;43.054;25.146;2024-03-29T03:27:53;11.70;;;3.00;;
61407;SDS011;47274;43.054;25.146;2024-03-29T03:30:24;13.05;;;3.10;;
61407;SDS011;47274;43.054;25.146;2024-03-29T03:32:52;15.45;;;3.40;;
61407;SDS011;47274;43.054;25.146;2024-03-29T03:35:20;13.02;;;3.30;;
61407;SDS011;47274;43.054;25.146;2024-03-29T03:37:48;13.93;;;3.97;;
61407;SDS011;47274;43.054;25.146;2024-03-29T03:40:24;11.38;;;3.15;;
61407;SDS011;47274;43.054;25.146;2024-03-29T03:42:56;14.18;;;3.28;;
61407;SDS011;47274;43.054;25.146;2024-03-29T03:45:34;12.68;;;2.83;;
61407;SDS011;47274;43.054;25.146;2024-03-29T03:48:09;11.07;;;2.60;;
61407;SDS011;47274;43.054;25.146;2024-03-29T03:50:41;14.82;;;3.28;;
61407;SDS011;47274;43.054;25.146;2024-03-29T03:53:12;14.93;;;2.83;;
61407;SDS011;47274;43.054;25.146;2024-03-29T03:55:50;11.35;;;2.97;;
61407;SDS011;47274;43.054;25.146;2024-03-29T03:58:20;9.48;;;2.85;;
61407;SDS011;47274;43.054;25.146;2024-03-29T04:00:52;12.90;;;2.58;;
61407;SDS011;47274;43.054;25.146;2024-03-29T04:03:47;13.75;;;2.72;;
61407;SDS011;47274;43.054;25.146;2024-03-29T04:11:09;7.97;;;1.83;;
61407;SDS011;47274;43.054;25.146;2024-03-29T04:16:10;7.63;;;2.05;;
61407;SDS011;47274;43.054;25.146;2024-03-29T04:18:40;8.70;;;1.88;;
61407;SDS011;47274;43.054;25.146;2024-03-29T04:21:09;8.02;;;1.75;;
61407;SDS011;47274;43.054;25.146;2024-03-29T04:23:39;7.18;;;1.80;;
61407;SDS011;47274;43.054;25.146;2024-03-29T04:26:13;7.40;;;2.10;;
61407;SDS011;47274;43.054;25.146;2024-03-29T04:28:52;5.95;;;2.03;;
61407;SDS011;47274;43.054;25.146;2024-03-29T04:31:23;9.82;;;2.10;;
61407;SDS011;47274;43.054;25.146;2024-03-29T04:33:52;11.15;;;1.90;;
61407;SDS011;47274;43.054;25.146;2024-03-29T04:36:25;7.95;;;1.77;;
61407;SDS011;47274;43.054;25.146;2024-03-29T04:38:56;6.63;;;2.00;;
61407;SDS011;47274;43.054;25.146;2024-03-29T04:41:26;7.75;;;2.05;;
61407;SDS011;47274;43.054;25.146;2024-03-29T04:43:54;11.65;;;2.30;;
61407;SDS011;47274;43.054;25.146;2024-03-29T04:46:29;9.97;;;2.37;;
61407;SDS011;47274;43.054;25.146;2024-03-29T04:49:03;12.65;;;2.35;;
61407;SDS011;47274;43.054;25.146;2024-03-29T04:51:53;9.50;;;2.20;;
61407;SDS011;47274;43.054;25.146;2024-03-29T04:54:38;8.88;;;2.00;;
61407;SDS011;47274;43.054;25.146;2024-03-29T04:57:12;5.38;;;1.65;;
61407;SDS011;47274;43.054;25.146;2024-03-29T04:59:40;8.25;;;1.70;;
61407;SDS011;47274;43.054;25.146;2024-03-29T05:02:17;8.35;;;1.98;;
61407;SDS011;47274;43.054;25.146;2024-03-29T05:05:05;5.60;;;1.80;;
61407;SDS011;47274;43.054;25.146;2024-03-29T05:07:39;9.05;;;2.13;;
61407;SDS011;47274;43.054;25.146;2024-03-29T05:10:09;10.07;;;2.15;;
61407;SDS011;47274;43.054;25.146;2024-03-29T05:12:44;5.72;;;1.60;;
61407;SDS011;47274;43.054;25.146;2024-03-29T05:15:14;10.05;;;2.28;;
61407;SDS011;47274;43.054;25.146;2024-03-29T05:17:43;7.03;;;1.73;;
61407;SDS011;47274;43.054;25.146;2024-03-29T05:20:15;9.23;;;2.30;;
61407;SDS011;47274;43.054;25.146;2024-03-29T05:22:53;7.10;;;1.73;;
61407;SDS011;47274;43.054;25.146;2024-03-29T05:25:34;8.70;;;3.05;;
61407;SDS011;47274;43.054;25.146;2024-03-29T05:28:04;5.68;;;2.05;;
61407;SDS011;47274;43.054;25.146;2024-03-29T05:30:36;8.45;;;2.45;;
61407;SDS011;47274;43.054;25.146;2024-03-29T05:33:10;11.88;;;3.20;;
61407;SDS011;47274;43.054;25.146;2024-03-29T05:35:45;13.52;;;3.97;;
61407;SDS011;47274;43.054;25.146;2024-03-29T05:38:17;10.30;;;3.15;;
61407;SDS011;47274;43.054;25.146;2024-03-29T05:41:01;10.48;;;3.00;;
61407;SDS011;47274;43.054;25.146;2024-03-29T05:43:32;10.00;;;2.70;;
61407;SDS011;47274;43.054;25.146;2024-03-29T05:46:09;5.20;;;2.28;;
61407;SDS011;47274;43.054;25.146;2024-03-29T05:48:48;4.05;;;2.10;;
61407;SDS011;47274;43.054;25.146;2024-03-29T05:51:21;11.95;;;3.83;;
61407;SDS011;47274;43.054;25.146;2024-03-29T05:53:54;9.10;;;2.25;;
61407;SDS011;47274;43.054;25.146;2024-03-29T05:56:27;11.25;;;2.58;;
61407;SDS011;47274;43.054;25.146;2024-03-29T05:58:58;5.15;;;2.15;;
61407;SDS011;47274;43.054;25.146;2024-03-29T06:01:34;4.35;;;1.98;;
61407;SDS011;47274;43.054;25.146;2024-03-29T06:04:03;5.70;;;2.22;;
61407;SDS011;47274;43.054;25.146;2024-03-29T06:06:50;4.78;;;2.30;;
61407;SDS011;47274;43.054;25.146;2024-03-29T06:09:20;6.88;;;2.00;;
61407;SDS011;47274;43.054;25.146;2024-03-29T06:17:15;7.00;;;2.17;;
61407;SDS011;47274;43.054;25.146;2024-03-29T06:19:55;7.78;;;2.05;;
61407;SDS011;47274;43.054;25.146;2024-03-29T06:22:34;4.97;;;2.40;;
61407;SDS011;47274;43.054;25.146;2024-03-29T06:25:10;5.63;;;2.13;;
61407;SDS011;47274;43.054;25.146;2024-03-29T06:27:41;10.55;;;2.75;;
61407;SDS011;47274;43.054;25.146;2024-03-29T06:30:20;10.82;;;2.80;;
61407;SDS011;47274;43.054;25.146;2024-03-29T06:32:48;9.52;;;2.80;;
61407;SDS011;47274;43.054;25.146;2024-03-29T06:35:21;8.77;;;2.60;;
61407;SDS011;47274;43.054;25.146;2024-03-29T06:37:56;6.18;;;2.40;;
61407;SDS011;47274;43.054;25.146;2024-03-29T06:40:26;8.90;;;2.58;;
61407;SDS011;47274;43.054;25.146;2024-03-29T06:42:59;10.95;;;3.03;;
61407;SDS011;47274;43.054;25.146;2024-03-29T06:45:33;5.25;;;2.38;;
61407;SDS011;47274;43.054;25.146;2024-03-29T06:48:03;6.50;;;2.85;;
61407;SDS011;47274;43.054;25.146;2024-03-29T06:50:34;8.00;;;2.10;;
61407;SDS011;47274;43.054;25.146;2024-03-29T06:55:45;7.85;;;2.60;;
61407;SDS011;47274;43.054;25.146;2024-03-29T06:58:15;11.35;;;2.95;;
61407;SDS011;47274;43.054;25.146;2024-03-29T07:00:46;8.57;;;2.97;;
61407;SDS011;47274;43.054;25.146;2024-03-29T07:03:18;11.53;;;3.17;;
61407;SDS011;47274;43.054;25.146;2024-03-29T07:05:48;6.15;;;2.30;;
61407;SDS011;47274;43.054;25.146;2024-03-29T07:08:23;6.88;;;2.42;;
61407;SDS011;47274;43.054;25.146;2024-03-29T07:10:58;7.10;;;2.72;;
61407;SDS011;47274;43.054;25.146;2024-03-29T07:13:30;9.52;;;3.20;;
61407;SDS011;47274;43.054;25.146;2024-03-29T07:15:58;8.52;;;2.78;;
61407;SDS011;47274;43.054;25.146;2024-03-29T07:18:41;11.50;;;3.00;;
61407;SDS011;47274;43.054;25.146;2024-03-29T07:21:11;9.80;;;2.70;;
61407;SDS011;47274;43.054;25.146;2024-03-29T07:23:42;8.10;;;2.15;;
61407;SDS011;47274;43.054;25.146;2024-03-29T07:26:13;7.53;;;2.20;;
61407;SDS011;47274;43.054;25.146;2024-03-29T07:28:42;5.18;;;1.90;;
61407;SDS011;47274;43.054;25.146;2024-03-29T07:31:13;7.90;;;2.50;;
61407;SDS011;47274;43.054;25.146;2024-03-29T07:33:43;11.05;;;2.40;;
61407;SDS011;47274;43.054;25.146;2024-03-29T07:36:13;8.38;;;2.58;;
61407;SDS011;47274;43.054;25.146;2024-03-29T07:38:42;5.70;;;1.83;;
61407;SDS011;47274;43.054;25.146;2024-03-29T07:41:15;7.57;;;1.98;;
61407;SDS011;47274;43.054;25.146;2024-03-29T07:43:56;8.68;;;1.95;;
61407;SDS011;47274;43.054;25.146;2024-03-29T07:46:29;6.35;;;1.77;;
61407;SDS011;47274;43.054;25.146;2024-03-29T07:49:00;4.38;;;1.58;;
61407;SDS011;47274;43.054;25.146;2024-03-29T07:51:31;4.80;;;1.63;;
61407;SDS011;47274;43.054;25.146;2024-03-29T07:54:03;5.15;;;1.65;;
61407;SDS011;47274;43.054;25.146;2024-03-29T07:56:40;8.15;;;2.15;;
61407;SDS011;47274;43.054;25.146;2024-03-29T07:59:14;4.63;;;1.60;;
61407;SDS011;47274;43.054;25.146;2024-03-29T08:01:54;9.23;;;1.90;;
61407;SDS011;47274;43.054;25.146;2024-03-29T08:04:27;6.13;;;1.73;;
61407;SDS011;47274;43.054;25.146;2024-03-29T08:07:02;4.60;;;1.60;;
61407;SDS011;47274;43.054;25.146;2024-03-29T08:09:31;7.47;;;1.63;;
61407;SDS011;47274;43.054;25.146;2024-03-29T08:12:05;12.63;;;2.20;;
61407;SDS011;47274;43.054;25.146;2024-03-29T08:14:37;8.65;;;2.22;;
61407;SDS011;47274;43.054;25.146;2024-03-29T08:17:10;6.30;;;1.65;;
61407;SDS011;47274;43.054;25.146;2024-03-29T08:19:41;9.13;;;1.95;;
61407;SDS011;47274;43.054;25.146;2024-03-29T08:22:17;7.60;;;1.70;;
61407;SDS011;47274;43.054;25.146;2024-03-29T08:24:50;6.63;;;1.88;;
61407;SDS011;47274;43.054;25.146;2024-03-29T08:27:20;7.28;;;2.05;;
61407;SDS011;47274;43.054;25.146;2024-03-29T08:29:49;8.35;;;2.08;;
61407;SDS011;47274;43.054;25.146;2024-03-29T08:32:18;20.48;;;2.70;;
61407;SDS011;47274;43.054;25.146;2024-03-29T08:34:53;7.20;;;1.77;;
61407;SDS011;47274;43.054;25.146;2024-03-29T08:37:29;6.03;;;1.73;;
61407;SDS011;47274;43.054;25.146;2024-03-29T08:40:03;7.10;;;2.20;;
61407;SDS011;47274;43.054;25.146;2024-03-29T08:42:34;7.72;;;1.88;;
61407;SDS011;47274;43.054;25.146;2024-03-29T08:45:05;7.78;;;1.73;;
61407;SDS011;47274;43.054;25.146;2024-03-29T08:47:39;8.02;;;1.95;;
61407;SDS011;47274;43.054;25.146;2024-03-29T08:50:08;10.50;;;1.90;;
61407;SDS011;47274;43.054;25.146;2024-03-29T08:52:40;6.88;;;1.63;;
61407;SDS011;47274;43.054;25.146;2024-03-29T08:55:13;5.20;;;1.60;;
61407;SDS011;47274;43.054;25.146;2024-03-29T08:57:49;5.38;;;1.60;;
61407;SDS011;47274;43.054;25.146;2024-03-29T09:00:30;6.25;;;1.60;;
61407;SDS011;47274;43.054;25.146;2024-03-29T09:03:00;4.47;;;1.35;;
61407;SDS011;47274;43.054;25.146;2024-03-29T09:05:33;6.13;;;1.70;;
61407;SDS011;47274;43.054;25.146;2024-03-29T09:08:03;4.32;;;1.60;;
61407;SDS011;47274;43.054;25.146;2024-03-29T09:10:40;5.90;;;1.83;;
61407;SDS011;47274;43.054;25.146;2024-03-29T09:13:17;5.93;;;1.88;;
61407;SDS011;47274;43.054;25.146;2024-03-29T09:15:53;6.90;;;1.90;;
61407;SDS011;47274;43.054;25.146;2024-03-29T09:18:23;8.00;;;1.52;;
61407;SDS011;47274;43.054;25.146;2024-03-29T09:21:05;6.25;;;1.83;;
61407;SDS011;47274;43.054;25.146;2024-03-29T09:26:18;5.07;;;1.83;;
61407;SDS011;47274;43.054;25.146;2024-03-29T09:28:54;8.27;;;2.50;;
61407;SDS011;47274;43.054;25.146;2024-03-29T09:31:28;7.72;;;2.67;;
61407;SDS011;47274;43.054;25.146;2024-03-29T09:41:32;11.00;;;1.77;;
61407;SDS011;47274;43.054;25.146;2024-03-29T09:44:10;6.32;;;1.67;;
61407;SDS011;47274;43.054;25.146;2024-03-29T09:47:06;7.45;;;2.13;;
61407;SDS011;47274;43.054;25.146;2024-03-29T09:49:44;4.80;;;2.20;;
61407;SDS011;47274;43.054;25.146;2024-03-29T09:52:52;22.52;;;2.70;;
61407;SDS011;47274;43.054;25.146;2024-03-29T09:56:13;11.00;;;2.40;;
61407;SDS011;47274;43.054;25.146;2024-03-29T09:59:05;7.28;;;2.47;;
61407;SDS011;47274;43.054;25.146;2024-03-29T10:02:14;10.80;;;2.50;;
61407;SDS011;47274;43.054;25.146;2024-03-29T10:05:24;7.47;;;2.45;;
61407;SDS011;47274;43.054;25.146;2024-03-29T10:16:41;8.13;;;2.10;;
61407;SDS011;47274;43.054;25.146;2024-03-29T10:19:53;6.35;;;1.77;;
61407;SDS011;47274;43.054;25.146;2024-03-29T10:23:15;4.25;;;1.52;;
61407;SDS011;47274;43.054;25.146;2024-03-29T10:26:11;5.80;;;1.92;;
61407;SDS011;47274;43.054;25.146;2024-03-29T10:33:03;5.60;;;2.15;;
61407;SDS011;47274;43.054;25.146;2024-03-29T10:35:49;7.65;;;2.58;;
61407;SDS011;47274;43.054;25.146;2024-03-29T10:38:56;5.32;;;1.77;;
61407;SDS011;47274;43.054;25.146;2024-03-29T10:42:30;8.15;;;2.05;;
61407;SDS011;47274;43.054;25.146;2024-03-29T10:45:35;3.13;;;1.27;;
61407;SDS011;47274;43.054;25.146;2024-03-29T10:52:28;7.32;;;2.58;;
61407;SDS011;47274;43.054;25.146;2024-03-29T11:00:03;7.60;;;1.83;;
61407;SDS011;47274;43.054;25.146;2024-03-29T11:38:39;5.93;;;1.55;;
61407;SDS011;47274;43.054;25.146;2024-03-29T11:45:38;10.25;;;2.00;;
61407;SDS011;47274;43.054;25.146;2024-03-29T11:48:39;4.88;;;1.60;;
61407;SDS011;47274;43.054;25.146;2024-03-29T11:51:19;5.88;;;1.90;;
61407;SDS011;47274;43.054;25.146;2024-03-29T11:53:56;6.03;;;1.67;;
61407;SDS011;47274;43.054;25.146;2024-03-29T11:56:44;4.82;;;1.70;;
61407;SDS011;47274;43.054;25.146;2024-03-29T11:59:20;4.63;;;1.67;;
61407;SDS011;47274;43.054;25.146;2024-03-29T12:09:45;6.57;;;1.67;;
61407;SDS011;47274;43.054;25.146;2024-03-29T12:16:50;6.00;;;1.55;;
61407;SDS011;47274;43.054;25.146;2024-03-29T12:26:41;7.60;;;1.88;;
61407;SDS011;47274;43.054;25.146;2024-03-29T12:29:20;5.38;;;2.00;;
61407;SDS011;47274;43.054;25.146;2024-03-29T12:32:09;5.57;;;2.03;;
61407;SDS011;47274;43.054;25.146;2024-03-29T12:35:17;4.55;;;1.48;;
61407;SDS011;47274;43.054;25.146;2024-03-29T12:38:02;4.72;;;1.52;;
61407;SDS011;47274;43.054;25.146;2024-03-29T12:41:01;6.13;;;1.63;;
61407;SDS011;47274;43.054;25.146;2024-03-29T12:43:55;6.03;;;1.80;;
61407;SDS011;47274;43.054;25.146;2024-03-29T12:46:42;3.75;;;1.45;;
61407;SDS011;47274;43.054;25.146;2024-03-29T12:49:26;3.88;;;1.25;;
61407;SDS011;47274;43.054;25.146;2024-03-29T12:52:57;7.60;;;1.77;;
61407;SDS011;47274;43.054;25.146;2024-03-29T12:59:52;4.07;;;1.33;;
61407;SDS011;47274;43.054;25.146;2024-03-29T13:03:17;4.43;;;1.70;;
61407;SDS011;47274;43.054;25.146;2024-03-29T13:06:26;3.75;;;1.85;;
61407;SDS011;47274;43.054;25.146;2024-03-29T13:10:32;4.30;;;1.70;;
61407;SDS011;47274;43.054;25.146;2024-03-29T13:17:12;3.47;;;1.70;;
61407;SDS011;47274;43.054;25.146;2024-03-29T13:20:31;9.50;;;1.67;;
61407;SDS011;47274;43.054;25.146;2024-03-29T13:23:45;3.75;;;1.10;;
61407;SDS011;47274;43.054;25.146;2024-03-29T13:30:26;7.88;;;2.10;;
61407;SDS011;47274;43.054;25.146;2024-03-29T13:37:52;3.65;;;1.40;;
61407;SDS011;47274;43.054;25.146;2024-03-29T13:40:51;3.33;;;1.50;;
61407;SDS011;47274;43.054;25.146;2024-03-29T13:43:26;5.55;;;1.52;;
61407;SDS011;47274;43.054;25.146;2024-03-29T13:46:03;3.85;;;1.75;;
61407;SDS011;47274;43.054;25.146;2024-03-29T13:48:47;3.65;;;1.40;;
61407;SDS011;47274;43.054;25.146;2024-03-29T13:51:32;3.83;;;1.20;;
61407;SDS011;47274;43.054;25.146;2024-03-29T13:54:11;5.20;;;1.33;;
61407;SDS011;47274;43.054;25.146;2024-03-29T13:56:43;3.70;;;1.55;;
61407;SDS011;47274;43.054;25.146;2024-03-29T13:59:17;4.13;;;1.42;;
61407;SDS011;47274;43.054;25.146;2024-03-29T14:02:05;3.53;;;1.20;;
61407;SDS011;47274;43.054;25.146;2024-03-29T14:04:43;8.40;;;1.60;;
61407;SDS011;47274;43.054;25.146;2024-03-29T14:07:46;5.72;;;1.83;;
61407;SDS011;47274;43.054;25.146;2024-03-29T14:11:10;6.22;;;1.50;;
61407;SDS011;47274;43.054;25.146;2024-03-29T14:14:59;7.00;;;2.08;;
61407;SDS011;47274;43.054;25.146;2024-03-29T14:19:06;18.60;;;3.13;;
61407;SDS011;47274;43.054;25.146;2024-03-29T14:25:55;7.10;;;1.63;;
61407;SDS011;47274;43.054;25.146;2024-03-29T14:29:15;5.00;;;1.40;;
61407;SDS011;47274;43.054;25.146;2024-03-29T14:35:49;3.95;;;1.85;;
61407;SDS011;47274;43.054;25.146;2024-03-29T14:38:43;7.30;;;1.67;;
61407;SDS011;47274;43.054;25.146;2024-03-29T14:42:15;12.43;;;2.90;;
61407;SDS011;47274;43.054;25.146;2024-03-29T14:45:36;5.15;;;1.90;;
61407;SDS011;47274;43.054;25.146;2024-03-29T14:51:52;7.03;;;1.65;;
61407;SDS011;47274;43.054;25.146;2024-03-29T14:57:14;6.78;;;2.08;;
61407;SDS011;47274;43.054;25.146;2024-03-29T15:00:35;5.13;;;1.58;;
61407;SDS011;47274;43.054;25.146;2024-03-29T15:03:33;4.03;;;1.95;;
61407;SDS011;47274;43.054;25.146;2024-03-29T15:06:29;5.40;;;2.30;;
61407;SDS011;47274;43.054;25.146;2024-03-29T15:13:20;6.03;;;2.00;;
61407;SDS011;47274;43.054;25.146;2024-03-29T15:16:06;6.03;;;2.00;;
61407;SDS011;47274;43.054;25.146;2024-03-29T15:19:19;6.47;;;2.75;;
61407;SDS011;47274;43.054;25.146;2024-03-29T15:22:49;6.72;;;2.42;;
61407;SDS011;47274;43.054;25.146;2024-03-29T15:26:00;4.80;;;1.77;;
61407;SDS011;47274;43.054;25.146;2024-03-29T15:29:32;4.85;;;1.88;;
61407;SDS011;47274;43.054;25.146;2024-03-29T15:32:37;4.50;;;1.90;;
61407;SDS011;47274;43.054;25.146;2024-03-29T15:35:36;5.07;;;1.70;;
61407;SDS011;47274;43.054;25.146;2024-03-29T15:38:38;9.05;;;1.92;;
61407;SDS011;47274;43.054;25.146;2024-03-29T15:42:10;4.97;;;1.77;;
61407;SDS011;47274;43.054;25.146;2024-03-29T15:45:35;8.18;;;1.98;;
61407;SDS011;47274;43.054;25.146;2024-03-29T15:48:20;6.68;;;1.52;;
61407;SDS011;47274;43.054;25.146;2024-03-29T15:51:09;5.65;;;1.65;;
61407;SDS011;47274;43.054;25.146;2024-03-29T15:53:52;7.32;;;2.00;;
61407;SDS011;47274;43.054;25.146;2024-03-29T16:00:44;10.77;;;2.13;;
61407;SDS011;47274;43.054;25.146;2024-03-29T16:03:36;7.28;;;1.80;;
61407;SDS011;47274;43.054;25.146;2024-03-29T16:06:31;7.80;;;1.85;;
61407;SDS011;47274;43.054;25.146;2024-03-29T16:09:47;7.82;;;2.70;;
61407;SDS011;47274;43.054;25.146;2024-03-29T16:16:33;20.48;;;7.22;;
61407;SDS011;47274;43.054;25.146;2024-03-29T16:19:15;36.58;;;19.48;;
61407;SDS011;47274;43.054;25.146;2024-03-29T16:22:44;43.47;;;25.00;;
61407;SDS011;47274;43.054;25.146;2024-03-29T16:32:50;14.25;;;5.03;;
61407;SDS011;47274;43.054;25.146;2024-03-29T16:35:49;11.90;;;3.92;;
61407;SDS011;47274;43.054;25.146;2024-03-29T16:38:37;15.32;;;4.05;;
61407;SDS011;47274;43.054;25.146;2024-03-29T16:41:42;10.32;;;3.20;;
61407;SDS011;47274;43.054;25.146;2024-03-29T16:45:16;9.15;;;2.80;;
61407;SDS011;47274;43.054;25.146;2024-03-29T16:47:46;11.07;;;3.10;;
61407;SDS011;47274;43.054;25.146;2024-03-29T16:51:12;8.68;;;2.40;;
61407;SDS011;47274;43.054;25.146;2024-03-29T16:53:46;10.13;;;2.88;;
61407;SDS011;47274;43.054;25.146;2024-03-29T16:57:09;7.20;;;2.30;;
61407;SDS011;47274;43.054;25.146;2024-03-29T17:00:36;10.63;;;2.30;;
61407;SDS011;47274;43.054;25.146;2024-03-29T17:03:51;5.28;;;1.85;;
61407;SDS011;47274;43.054;25.146;2024-03-29T17:06:35;7.10;;;2.25;;
61407;SDS011;47274;43.054;25.146;2024-03-29T17:10:07;9.52;;;3.83;;
61407;SDS011;47274;43.054;25.146;2024-03-29T17:13:17;10.50;;;4.20;;
61407;SDS011;47274;43.054;25.146;2024-03-29T17:19:59;9.80;;;4.35;;
61407;SDS011;47274;43.054;25.146;2024-03-29T17:22:36;8.07;;;3.78;;
61407;SDS011;47274;43.054;25.146;2024-03-29T17:26:16;7.65;;;3.40;;
61407;SDS011;47274;43.054;25.146;2024-03-29T17:32:09;16.10;;;5.80;;
61407;SDS011;47274;43.054;25.146;2024-03-29T17:35:59;18.02;;;5.20;;
61407;SDS011;47274;43.054;25.146;2024-03-29T17:39:40;12.07;;;3.58;;
61407;SDS011;47274;43.054;25.146;2024-03-29T17:42:33;18.30;;;6.07;;
61407;SDS011;47274;43.054;25.146;2024-03-29T17:45:36;14.77;;;4.80;;
61407;SDS011;47274;43.054;25.146;2024-03-29T17:52:20;9.45;;;3.22;;
61407;SDS011;47274;43.054;25.146;2024-03-29T17:55:01;8.60;;;2.90;;
61407;SDS011;47274;43.054;25.146;2024-03-29T17:58:01;10.25;;;2.90;;
61407;SDS011;47274;43.054;25.146;2024-03-29T18:01:12;10.65;;;3.10;;
61407;SDS011;47274;43.054;25.146;2024-03-29T18:04:33;11.43;;;3.05;;
61407;SDS011;47274;43.054;25.146;2024-03-29T18:11:02;5.22;;;2.55;;
61407;SDS011;47274;43.054;25.146;2024-03-29T18:13:43;10.25;;;2.72;;
61407;SDS011;47274;43.054;25.146;2024-03-29T18:22:31;15.52;;;4.38;;
61407;SDS011;47274;43.054;25.146;2024-03-29T18:25:22;11.20;;;4.03;;
61407;SDS011;47274;43.054;25.146;2024-03-29T18:29:20;18.55;;;5.18;;
61407;SDS011;47274;43.054;25.146;2024-03-29T18:33:14;17.80;;;6.45;;
61407;SDS011;47274;43.054;25.146;2024-03-29T18:39:20;16.33;;;5.13;;
61407;SDS011;47274;43.054;25.146;2024-03-29T18:42:37;18.52;;;7.32;;
61407;SDS011;47274;43.054;25.146;2024-03-29T18:53:20;16.13;;;6.20;;
61407;SDS011;47274;43.054;25.146;2024-03-29T18:56:30;10.30;;;3.53;;
61407;SDS011;47274;43.054;25.146;2024-03-29T18:59:57;14.32;;;4.28;;
61407;SDS011;47274;43.054;25.146;2024-03-29T19:09:31;9.70;;;3.15;;
61407;SDS011;47274;43.054;25.146;2024-03-29T19:15:32;7.60;;;3.00;;
61407;SDS011;47274;43.054;25.146;2024-03-29T19:18:38;7.10;;;2.38;;
61407;SDS011;47274;43.054;25.146;2024-03-29T19:24:55;8.90;;;2.17;;
61407;SDS011;47274;43.054;25.146;2024-03-29T19:32:20;7.35;;;2.42;;
61407;SDS011;47274;43.054;25.146;2024-03-29T19:35:56;12.15;;;2.78;;
61407;SDS011;47274;43.054;25.146;2024-03-29T19:39:10;9.20;;;2.47;;
61407;SDS011;47274;43.054;25.146;2024-03-29T19:42:31;6.50;;;2.05;;
61407;SDS011;47274;43.054;25.146;2024-03-29T19:49:07;10.70;;;3.20;;